sensor_id;sensor_type;location;lat;lon;timestamp;pressure;altitude;pressure_sealevel;temperature;humidity
7668;BME280;3876;42.204;24.686;2022-12-07T00:01:25;99606.88;;;7.54;100.00
7668;BME280;3876;42.204;24.686;2022-12-07T00:03:53;99607.75;;;7.53;100.00
7668;BME280;3876;42.204;24.686;2022-12-07T00:06:22;99606.09;;;7.49;100.00
7668;BME280;3876;42.204;24.686;2022-12-07T00:08:51;99610.44;;;7.42;100.00
7668;BME280;3876;42.204;24.686;2022-12-07T00:11:19;99608.78;;;7.38;100.00
7668;BME280;3876;42.204;24.686;2022-12-07T00:13:47;99614.75;;;7.37;100.00
7668;BME280;3876;42.204;24.686;2022-12-07T00:16:16;99614.78;;;7.35;100.00
7668;BME280;3876;42.204;24.686;2022-12-07T00:18:44;99604.66;;;7.29;100.00
7668;BME280;3876;42.204;24.686;2022-12-07T00:21:13;99609.81;;;7.25;100.00
7668;BME280;3876;42.204;24.686;2022-12-07T00:23:41;99609.00;;;7.21;100.00
7668;BME280;3876;42.204;24.686;2022-12-07T00:26:11;99609.09;;;7.15;100.00
7668;BME280;3876;42.204;24.686;2022-12-07T00:28:38;99611.69;;;7.14;100.00
7668;BME280;3876;42.204;24.686;2022-12-07T00:31:07;99608.34;;;7.09;100.00
7668;BME280;3876;42.204;24.686;2022-12-07T00:33:35;99614.28;;;7.11;100.00
7668;BME280;3876;42.204;24.686;2022-12-07T00:36:07;99604.94;;;7.10;100.00
7668;BME280;3876;42.204;24.686;2022-12-07T00:38:35;99617.59;;;7.14;100.00
7668;BME280;3876;42.204;24.686;2022-12-07T00:41:04;99610.84;;;7.13;100.00
7668;BME280;3876;42.204;24.686;2022-12-07T00:43:33;99609.94;;;7.14;100.00
7668;BME280;3876;42.204;24.686;2022-12-07T00:45:59;99615.94;;;7.13;100.00
7668;BME280;3876;42.204;24.686;2022-12-07T00:48:26;99616.84;;;7.09;100.00
7668;BME280;3876;42.204;24.686;2022-12-07T00:50:53;99607.53;;;7.05;100.00
7668;BME280;3876;42.204;24.686;2022-12-07T00:53:20;99598.25;;;6.98;100.00
7668;BME280;3876;42.204;24.686;2022-12-07T00:55:47;99602.47;;;7.02;100.00
7668;BME280;3876;42.204;24.686;2022-12-07T00:58:14;99602.50;;;6.99;100.00
7668;BME280;3876;42.204;24.686;2022-12-07T01:00:42;99599.13;;;7.00;100.00
7668;BME280;3876;42.204;24.686;2022-12-07T01:03:11;99593.22;;;6.95;100.00
7668;BME280;3876;42.204;24.686;2022-12-07T01:05:38;99593.13;;;7.03;100.00
7668;BME280;3876;42.204;24.686;2022-12-07T01:08:06;99593.97;;;7.03;100.00
7668;BME280;3876;42.204;24.686;2022-12-07T01:10:33;99573.75;;;6.91;100.00
7668;BME280;3876;42.204;24.686;2022-12-07T01:13:00;99593.16;;;6.98;100.00
7668;BME280;3876;42.204;24.686;2022-12-07T01:15:26;99589.00;;;6.94;100.00
7668;BME280;3876;42.204;24.686;2022-12-07T01:17:55;99589.00;;;6.94;100.00
7668;BME280;3876;42.204;24.686;2022-12-07T01:20:22;99578.72;;;7.00;100.00
7668;BME280;3876;42.204;24.686;2022-12-07T01:22:48;99571.94;;;6.99;100.00
7668;BME280;3876;42.204;24.686;2022-12-07T01:25:15;99568.53;;;7.00;100.00
7668;BME280;3876;42.204;24.686;2022-12-07T01:27:42;99575.44;;;6.89;100.00
7668;BME280;3876;42.204;24.686;2022-12-07T01:30:10;99568.69;;;6.85;100.00
7668;BME280;3876;42.204;24.686;2022-12-07T01:32:37;99575.53;;;6.83;100.00
7668;BME280;3876;42.204;24.686;2022-12-07T01:35:06;99572.13;;;6.82;100.00
7668;BME280;3876;42.204;24.686;2022-12-07T01:37:36;99572.13;;;6.84;100.00
7668;BME280;3876;42.204;24.686;2022-12-07T01:40:05;99562.84;;;6.80;100.00
7668;BME280;3876;42.204;24.686;2022-12-07T01:42:32;99567.03;;;6.84;100.00
7668;BME280;3876;42.204;24.686;2022-12-07T01:45:38;99568.78;;;6.80;100.00
7668;BME280;3876;42.204;24.686;2022-12-07T01:48:07;99554.41;;;6.75;100.00
7668;BME280;3876;42.204;24.686;2022-12-07T01:50:38;99559.41;;;6.82;100.00
7668;BME280;3876;42.204;24.686;2022-12-07T01:53:09;99556.88;;;6.81;100.00
7668;BME280;3876;42.204;24.686;2022-12-07T01:55:39;99560.28;;;6.80;100.00
7668;BME280;3876;42.204;24.686;2022-12-07T01:58:07;99561.09;;;6.83;100.00
7668;BME280;3876;42.204;24.686;2022-12-07T02:00:34;99560.22;;;6.86;100.00
7668;BME280;3876;42.204;24.686;2022-12-07T02:03:05;99564.44;;;6.85;100.00
7668;BME280;3876;42.204;24.686;2022-12-07T02:05:34;99560.22;;;6.86;100.00
7668;BME280;3876;42.204;24.686;2022-12-07T02:08:05;99552.56;;;6.88;100.00
7668;BME280;3876;42.204;24.686;2022-12-07T02:10:32;99550.00;;;6.86;100.00
7668;BME280;3876;42.204;24.686;2022-12-07T02:13:02;99547.50;;;6.84;100.00
7668;BME280;3876;42.204;24.686;2022-12-07T02:15:38;99528.00;;;6.79;100.00
7668;BME280;3876;42.204;24.686;2022-12-07T02:18:09;99542.41;;;6.84;100.00
7668;BME280;3876;42.204;24.686;2022-12-07T02:20:39;99541.56;;;6.84;100.00
7668;BME280;3876;42.204;24.686;2022-12-07T02:23:29;99534.72;;;6.86;100.00
7668;BME280;3876;42.204;24.686;2022-12-07T02:26:19;99515.44;;;6.68;100.00
7668;BME280;3876;42.204;24.686;2022-12-07T02:29:08;99522.84;;;6.85;100.00
7668;BME280;3876;42.204;24.686;2022-12-07T02:31:37;99527.91;;;6.88;100.00
7668;BME280;3876;42.204;24.686;2022-12-07T02:34:09;99528.72;;;6.90;100.00
7668;BME280;3876;42.204;24.686;2022-12-07T02:36:42;99528.69;;;6.92;100.00
7668;BME280;3876;42.204;24.686;2022-12-07T02:39:16;99519.31;;;6.95;100.00
7668;BME280;3876;42.204;24.686;2022-12-07T02:41:47;99527.78;;;6.97;100.00
7668;BME280;3876;42.204;24.686;2022-12-07T02:44:19;99509.25;;;6.86;100.00
7668;BME280;3876;42.204;24.686;2022-12-07T02:46:50;99522.66;;;6.99;100.00
7668;BME280;3876;42.204;24.686;2022-12-07T02:49:21;99517.66;;;6.93;100.00
7668;BME280;3876;42.204;24.686;2022-12-07T02:51:49;99517.69;;;6.91;100.00
7668;BME280;3876;42.204;24.686;2022-12-07T02:54:18;99509.19;;;6.89;100.00
7668;BME280;3876;42.204;24.686;2022-12-07T02:56:48;99515.19;;;6.88;100.00
7668;BME280;3876;42.204;24.686;2022-12-07T02:59:29;99514.25;;;6.92;100.00
7668;BME280;3876;42.204;24.686;2022-12-07T03:02:08;99502.34;;;6.94;100.00
7668;BME280;3876;42.204;24.686;2022-12-07T03:04:45;99508.38;;;6.87;100.00
7668;BME280;3876;42.204;24.686;2022-12-07T03:07:23;99512.50;;;6.97;100.00
7668;BME280;3876;42.204;24.686;2022-12-07T03:09:58;99515.00;;;7.00;100.00
7668;BME280;3876;42.204;24.686;2022-12-07T03:12:32;99508.16;;;7.02;100.00
7668;BME280;3876;42.204;24.686;2022-12-07T03:15:06;99509.88;;;7.03;100.00
7668;BME280;3876;42.204;24.686;2022-12-07T03:17:36;99510.75;;;6.99;100.00
7668;BME280;3876;42.204;24.686;2022-12-07T03:20:07;99520.91;;;7.04;100.00
7668;BME280;3876;42.204;24.686;2022-12-07T03:22:38;99521.72;;;7.06;100.00
7668;BME280;3876;42.204;24.686;2022-12-07T03:25:10;99514.13;;;7.01;100.00
7668;BME280;3876;42.204;24.686;2022-12-07T03:27:41;99519.16;;;7.07;100.00
7668;BME280;3876;42.204;24.686;2022-12-07T03:30:14;99517.41;;;7.09;100.00
7668;BME280;3876;42.204;24.686;2022-12-07T03:32:45;99508.97;;;7.07;100.00
7668;BME280;3876;42.204;24.686;2022-12-07T03:35:17;99523.41;;;7.05;100.00
7668;BME280;3876;42.204;24.686;2022-12-07T03:37:50;99514.06;;;7.07;100.00
7668;BME280;3876;42.204;24.686;2022-12-07T03:40:23;99504.72;;;7.06;100.00
7668;BME280;3876;42.204;24.686;2022-12-07T03:42:52;99507.31;;;7.03;100.00
7668;BME280;3876;42.204;24.686;2022-12-07T03:45:24;99508.22;;;6.99;100.00
7668;BME280;3876;42.204;24.686;2022-12-07T03:47:57;99510.81;;;6.96;100.00
7668;BME280;3876;42.204;24.686;2022-12-07T03:50:32;99497.34;;;6.85;100.00
7668;BME280;3876;42.204;24.686;2022-12-07T03:53:04;99517.69;;;6.91;100.00
7668;BME280;3876;42.204;24.686;2022-12-07T03:55:39;99512.59;;;6.91;100.00
7668;BME280;3876;42.204;24.686;2022-12-07T03:58:10;99510.91;;;6.90;100.00
7668;BME280;3876;42.204;24.686;2022-12-07T04:00:40;99506.66;;;6.91;100.00
7668;BME280;3876;42.204;24.686;2022-12-07T04:03:08;99512.59;;;6.90;100.00
7668;BME280;3876;42.204;24.686;2022-12-07T04:05:35;99506.66;;;6.89;100.00
7668;BME280;3876;42.204;24.686;2022-12-07T04:08:02;99504.09;;;6.89;100.00
7668;BME280;3876;42.204;24.686;2022-12-07T04:10:29;99502.41;;;6.91;100.00
7668;BME280;3876;42.204;24.686;2022-12-07T04:12:56;99491.31;;;6.92;100.00
7668;BME280;3876;42.204;24.686;2022-12-07T04:15:23;99499.84;;;6.91;100.00
7668;BME280;3876;42.204;24.686;2022-12-07T04:17:51;99483.00;;;6.81;100.00
7668;BME280;3876;42.204;24.686;2022-12-07T04:20:19;99488.94;;;6.80;100.00
7668;BME280;3876;42.204;24.686;2022-12-07T04:22:46;99499.13;;;6.80;100.00
7668;BME280;3876;42.204;24.686;2022-12-07T04:25:13;99488.97;;;6.78;100.00
7668;BME280;3876;42.204;24.686;2022-12-07T04:27:39;99489.84;;;6.77;100.00
7668;BME280;3876;42.204;24.686;2022-12-07T04:30:07;99490.69;;;6.76;100.00
7668;BME280;3876;42.204;24.686;2022-12-07T04:32:34;99489.81;;;6.79;100.00
7668;BME280;3876;42.204;24.686;2022-12-07T04:35:03;99487.22;;;6.82;100.00
7668;BME280;3876;42.204;24.686;2022-12-07T04:37:30;99498.25;;;6.82;100.00
7668;BME280;3876;42.204;24.686;2022-12-07T04:39:57;99496.63;;;6.78;100.00
7668;BME280;3876;42.204;24.686;2022-12-07T04:42:24;99493.25;;;6.76;100.00
7668;BME280;3876;42.204;24.686;2022-12-07T04:44:50;99490.78;;;6.72;100.00
7668;BME280;3876;42.204;24.686;2022-12-07T04:47:17;99490.88;;;6.63;100.00
7668;BME280;3876;42.204;24.686;2022-12-07T04:49:44;99485.81;;;6.61;100.00
7668;BME280;3876;42.204;24.686;2022-12-07T04:52:12;99497.72;;;6.58;100.00
7668;BME280;3876;42.204;24.686;2022-12-07T04:54:39;99505.44;;;6.52;100.00
7668;BME280;3876;42.204;24.686;2022-12-07T04:57:06;99494.38;;;6.53;100.00
7668;BME280;3876;42.204;24.686;2022-12-07T04:59:32;99499.47;;;6.53;100.00
7668;BME280;3876;42.204;24.686;2022-12-07T05:01:59;99495.22;;;6.53;100.00
7668;BME280;3876;42.204;24.686;2022-12-07T05:04:26;99498.63;;;6.54;100.00
7668;BME280;3876;42.204;24.686;2022-12-07T05:06:53;99502.03;;;6.53;100.00
7668;BME280;3876;42.204;24.686;2022-12-07T05:09:21;99499.50;;;6.50;100.00
7668;BME280;3876;42.204;24.686;2022-12-07T05:11:48;99498.72;;;6.48;100.00
7668;BME280;3876;42.204;24.686;2022-12-07T05:14:16;99502.06;;;6.51;100.00
7668;BME280;3876;42.204;24.686;2022-12-07T05:16:45;99492.72;;;6.50;100.00
7668;BME280;3876;42.204;24.686;2022-12-07T05:19:12;99497.00;;;6.48;100.00
7668;BME280;3876;42.204;24.686;2022-12-07T05:21:39;99497.03;;;6.45;100.00
7668;BME280;3876;42.204;24.686;2022-12-07T05:24:08;99505.53;;;6.44;100.00
7668;BME280;3876;42.204;24.686;2022-12-07T05:26:37;99504.66;;;6.47;100.00
7668;BME280;3876;42.204;24.686;2022-12-07T05:29:04;99492.88;;;6.40;100.00
7668;BME280;3876;42.204;24.686;2022-12-07T05:31:31;99510.66;;;6.41;100.00
7668;BME280;3876;42.204;24.686;2022-12-07T05:33:59;99517.47;;;6.42;100.00
7668;BME280;3876;42.204;24.686;2022-12-07T05:36:26;99514.03;;;6.43;100.00
7668;BME280;3876;42.204;24.686;2022-12-07T05:38:54;99514.88;;;6.44;100.00
7668;BME280;3876;42.204;24.686;2022-12-07T05:41:20;99512.41;;;6.38;100.00
7668;BME280;3876;42.204;24.686;2022-12-07T05:44:06;99518.34;;;6.37;100.00
7668;BME280;3876;42.204;24.686;2022-12-07T05:46:33;99514.16;;;6.32;100.00
7668;BME280;3876;42.204;24.686;2022-12-07T05:49:00;99513.25;;;6.37;100.00
7668;BME280;3876;42.204;24.686;2022-12-07T05:51:28;99512.44;;;6.34;100.00
7668;BME280;3876;42.204;24.686;2022-12-07T05:53:54;99513.28;;;6.33;100.00
7668;BME280;3876;42.204;24.686;2022-12-07T05:56:22;99511.63;;;6.32;100.00
7668;BME280;3876;42.204;24.686;2022-12-07T05:58:49;99509.13;;;6.28;100.00
7668;BME280;3876;42.204;24.686;2022-12-07T06:01:35;99520.94;;;6.33;100.00
7668;BME280;3876;42.204;24.686;2022-12-07T06:04:02;99504.94;;;6.22;100.00
7668;BME280;3876;42.204;24.686;2022-12-07T06:06:29;99526.91;;;6.32;100.00
7668;BME280;3876;42.204;24.686;2022-12-07T06:08:55;99521.00;;;6.29;100.00
7668;BME280;3876;42.204;24.686;2022-12-07T06:11:22;99528.59;;;6.30;100.00
7668;BME280;3876;42.204;24.686;2022-12-07T06:14:06;99521.84;;;6.29;100.00
7668;BME280;3876;42.204;24.686;2022-12-07T06:16:34;99523.53;;;6.27;100.00
7668;BME280;3876;42.204;24.686;2022-12-07T06:19:01;99526.16;;;6.21;100.00
7668;BME280;3876;42.204;24.686;2022-12-07T06:21:28;99499.22;;;6.02;100.00
7668;BME280;3876;42.204;24.686;2022-12-07T06:23:55;99522.88;;;6.12;100.00
7668;BME280;3876;42.204;24.686;2022-12-07T06:26:22;99527.09;;;6.11;100.00
7668;BME280;3876;42.204;24.686;2022-12-07T06:28:48;99526.31;;;6.05;100.00
7668;BME280;3876;42.204;24.686;2022-12-07T06:31:15;99520.50;;;5.95;100.00
7668;BME280;3876;42.204;24.686;2022-12-07T06:33:43;99528.25;;;5.81;100.00
7668;BME280;3876;42.204;24.686;2022-12-07T06:36:10;99518.13;;;5.74;100.00
7668;BME280;3876;42.204;24.686;2022-12-07T06:38:38;99528.25;;;5.78;100.00
7668;BME280;3876;42.204;24.686;2022-12-07T06:41:05;99529.97;;;5.78;100.00
7668;BME280;3876;42.204;24.686;2022-12-07T06:43:32;99521.47;;;5.79;100.00
7668;BME280;3876;42.204;24.686;2022-12-07T06:45:59;99534.16;;;5.82;100.00
7668;BME280;3876;42.204;24.686;2022-12-07T06:48:26;99531.56;;;5.85;100.00
7668;BME280;3876;42.204;24.686;2022-12-07T06:50:54;99527.38;;;5.87;100.00
7668;BME280;3876;42.204;24.686;2022-12-07T06:53:21;99480.97;;;5.58;100.00
7668;BME280;3876;42.204;24.686;2022-12-07T06:55:47;99525.59;;;5.92;100.00
7668;BME280;3876;42.204;24.686;2022-12-07T06:58:14;99517.94;;;5.95;100.00
7668;BME280;3876;42.204;24.686;2022-12-07T07:00:41;99522.97;;;6.01;100.00
7668;BME280;3876;42.204;24.686;2022-12-07T07:03:08;99523.78;;;6.06;100.00
7668;BME280;3876;42.204;24.686;2022-12-07T07:05:35;99518.63;;;6.12;100.00
7668;BME280;3876;42.204;24.686;2022-12-07T07:08:03;99516.06;;;6.17;100.00
7668;BME280;3876;42.204;24.686;2022-12-07T07:10:30;99515.09;;;6.24;100.00
7668;BME280;3876;42.204;24.686;2022-12-07T07:12:57;99525.16;;;6.34;100.00
7668;BME280;3876;42.204;24.686;2022-12-07T07:15:24;99524.97;;;6.50;100.00
7668;BME280;3876;42.204;24.686;2022-12-07T07:17:51;99519.81;;;6.59;100.00
7668;BME280;3876;42.204;24.686;2022-12-07T07:20:17;99518.03;;;6.64;100.00
7668;BME280;3876;42.204;24.686;2022-12-07T07:22:44;99520.44;;;6.74;100.00
7668;BME280;3876;42.204;24.686;2022-12-07T07:25:12;99516.78;;;6.94;100.00
7668;BME280;3876;42.204;24.686;2022-12-07T07:27:39;99515.84;;;6.99;100.00
7668;BME280;3876;42.204;24.686;2022-12-07T07:30:07;99501.38;;;7.03;100.00
7668;BME280;3876;42.204;24.686;2022-12-07T07:32:34;99510.56;;;7.13;100.00
7668;BME280;3876;42.204;24.686;2022-12-07T07:35:01;99523.28;;;7.14;100.00
7668;BME280;3876;42.204;24.686;2022-12-07T07:37:28;99528.28;;;7.22;100.00
7668;BME280;3876;42.204;24.686;2022-12-07T07:39:55;99534.19;;;7.25;100.00
7668;BME280;3876;42.204;24.686;2022-12-07T07:42:23;99534.09;;;7.31;100.00
7668;BME280;3876;42.204;24.686;2022-12-07T07:44:50;99525.63;;;7.29;100.00
7668;BME280;3876;42.204;24.686;2022-12-07T07:47:16;99542.47;;;7.39;100.00
7668;BME280;3876;42.204;24.686;2022-12-07T07:49:43;99523.84;;;7.34;100.00
7668;BME280;3876;42.204;24.686;2022-12-07T07:52:10;99537.22;;;7.49;100.00
7668;BME280;3876;42.204;24.686;2022-12-07T07:54:37;99530.34;;;7.54;100.00
7668;BME280;3876;42.204;24.686;2022-12-07T07:57:04;99535.34;;;7.60;100.00
7668;BME280;3876;42.204;24.686;2022-12-07T07:59:32;99536.97;;;7.64;100.00
7668;BME280;3876;42.204;24.686;2022-12-07T08:01:59;99539.47;;;7.68;100.00
7668;BME280;3876;42.204;24.686;2022-12-07T08:04:25;99535.91;;;7.78;100.00
7668;BME280;3876;42.204;24.686;2022-12-07T08:06:52;99531.44;;;7.91;100.00
7668;BME280;3876;42.204;24.686;2022-12-07T08:09:19;99534.63;;;8.02;100.00
7668;BME280;3876;42.204;24.686;2022-12-07T08:11:46;99529.41;;;8.08;100.00
7668;BME280;3876;42.204;24.686;2022-12-07T08:14:13;99527.50;;;8.19;100.00
7668;BME280;3876;42.204;24.686;2022-12-07T08:16:41;99536.66;;;8.32;100.00
7668;BME280;3876;42.204;24.686;2022-12-07T08:19:08;99524.69;;;8.34;100.00
7668;BME280;3876;42.204;24.686;2022-12-07T08:21:34;99526.97;;;8.50;100.00
7668;BME280;3876;42.204;24.686;2022-12-07T08:24:01;99525.00;;;8.61;100.00
7668;BME280;3876;42.204;24.686;2022-12-07T08:26:28;99535.03;;;8.70;100.00
7668;BME280;3876;42.204;24.686;2022-12-07T08:28:55;99532.34;;;8.76;100.00
7668;BME280;3876;42.204;24.686;2022-12-07T08:31:22;99533.00;;;8.85;100.00
7668;BME280;3876;42.204;24.686;2022-12-07T08:33:50;99509.25;;;8.82;100.00
7668;BME280;3876;42.204;24.686;2022-12-07T08:36:17;99531.00;;;9.01;100.00
7668;BME280;3876;42.204;24.686;2022-12-07T08:38:44;99539.31;;;9.09;100.00
7668;BME280;3876;42.204;24.686;2022-12-07T08:41:11;99528.81;;;9.21;100.00
7668;BME280;3876;42.204;24.686;2022-12-07T08:43:38;99525.16;;;9.31;100.00
7668;BME280;3876;42.204;24.686;2022-12-07T08:46:09;99525.72;;;9.44;100.00
7668;BME280;3876;42.204;24.686;2022-12-07T08:48:38;99527.03;;;9.60;100.00
7668;BME280;3876;42.204;24.686;2022-12-07T08:51:07;99527.72;;;9.67;100.00
7668;BME280;3876;42.204;24.686;2022-12-07T08:53:35;99527.56;;;9.73;100.00
7668;BME280;3876;42.204;24.686;2022-12-07T08:56:03;99517.25;;;9.76;100.00
7668;BME280;3876;42.204;24.686;2022-12-07T08:58:31;99516.31;;;9.80;100.00
7668;BME280;3876;42.204;24.686;2022-12-07T09:00:58;99508.56;;;9.83;100.00
7668;BME280;3876;42.204;24.686;2022-12-07T09:03:25;99510.09;;;9.90;100.00
7668;BME280;3876;42.204;24.686;2022-12-07T09:05:52;99511.84;;;9.88;100.00
7668;BME280;3876;42.204;24.686;2022-12-07T09:08:21;99502.47;;;9.88;100.00
7668;BME280;3876;42.204;24.686;2022-12-07T09:10:49;99506.41;;;10.00;100.00
7668;BME280;3876;42.204;24.686;2022-12-07T09:13:15;99502.97;;;10.01;100.00
7668;BME280;3876;42.204;24.686;2022-12-07T09:15:42;99499.41;;;10.07;100.00
7668;BME280;3876;42.204;24.686;2022-12-07T09:18:09;99486.19;;;9.89;100.00
7668;BME280;3876;42.204;24.686;2022-12-07T09:20:36;99491.22;;;9.94;100.00
7668;BME280;3876;42.204;24.686;2022-12-07T09:23:05;99485.75;;;10.06;100.00
7668;BME280;3876;42.204;24.686;2022-12-07T09:25:33;99475.19;;;10.18;100.00
7668;BME280;3876;42.204;24.686;2022-12-07T09:28:00;99473.38;;;10.23;100.00
7668;BME280;3876;42.204;24.686;2022-12-07T09:30:27;99467.91;;;10.35;100.00
7668;BME280;3876;42.204;24.686;2022-12-07T09:32:55;99461.09;;;10.34;100.00
7668;BME280;3876;42.204;24.686;2022-12-07T09:35:22;99461.63;;;10.45;100.00
7668;BME280;3876;42.204;24.686;2022-12-07T09:37:49;99447.38;;;10.37;100.00
7668;BME280;3876;42.204;24.686;2022-12-07T09:40:17;99456.06;;;10.61;100.00
7668;BME280;3876;42.204;24.686;2022-12-07T09:42:50;99450.66;;;10.70;100.00
7668;BME280;3876;42.204;24.686;2022-12-07T09:45:21;99448.94;;;10.70;100.00
7668;BME280;3876;42.204;24.686;2022-12-07T09:47:49;99443.66;;;10.75;100.00
7668;BME280;3876;42.204;24.686;2022-12-07T09:50:19;99440.91;;;10.81;100.00
7668;BME280;3876;42.204;24.686;2022-12-07T09:52:47;99444.06;;;10.89;100.00
7668;BME280;3876;42.204;24.686;2022-12-07T09:55:16;99434.66;;;10.89;100.00
7668;BME280;3876;42.204;24.686;2022-12-07T09:57:48;99431.88;;;10.97;100.00
7668;BME280;3876;42.204;24.686;2022-12-07T10:00:18;99433.25;;;10.79;100.00
7668;BME280;3876;42.204;24.686;2022-12-07T10:02:48;99428.88;;;10.83;100.00
7668;BME280;3876;42.204;24.686;2022-12-07T10:05:20;99440.44;;;10.96;100.00
7668;BME280;3876;42.204;24.686;2022-12-07T10:07:48;99436.72;;;11.06;100.00
7668;BME280;3876;42.204;24.686;2022-12-07T10:10:20;99440.16;;;11.05;100.00
7668;BME280;3876;42.204;24.686;2022-12-07T10:12:56;99432.31;;;11.10;100.00
7668;BME280;3876;42.204;24.686;2022-12-07T10:15:23;99422.81;;;11.13;100.00
7668;BME280;3876;42.204;24.686;2022-12-07T10:18:17;99402.19;;;11.16;100.00
7668;BME280;3876;42.204;24.686;2022-12-07T10:20:46;99391.47;;;11.03;100.00
7668;BME280;3876;42.204;24.686;2022-12-07T10:23:15;99418.41;;;11.17;100.00
7668;BME280;3876;42.204;24.686;2022-12-07T10:25:42;99406.66;;;11.10;100.00
7668;BME280;3876;42.204;24.686;2022-12-07T10:28:15;99368.53;;;10.99;100.00
7668;BME280;3876;42.204;24.686;2022-12-07T10:30:47;99406.25;;;11.22;100.00
7668;BME280;3876;42.204;24.686;2022-12-07T10:33:28;99400.13;;;11.27;100.00
7668;BME280;3876;42.204;24.686;2022-12-07T10:35:55;99398.00;;;11.38;100.00
7668;BME280;3876;42.204;24.686;2022-12-07T10:38:24;99405.41;;;11.21;100.00
7668;BME280;3876;42.204;24.686;2022-12-07T10:41:03;99407.75;;;11.29;100.00
7668;BME280;3876;42.204;24.686;2022-12-07T10:43:32;99401.38;;;11.40;100.00
7668;BME280;3876;42.204;24.686;2022-12-07T10:46:13;99404.50;;;11.48;100.00
7668;BME280;3876;42.204;24.686;2022-12-07T10:48:52;99401.59;;;11.59;99.56
7668;BME280;3876;42.204;24.686;2022-12-07T10:51:27;99395.53;;;11.60;99.86
7668;BME280;3876;42.204;24.686;2022-12-07T10:54:06;99385.19;;;11.63;100.00
7668;BME280;3876;42.204;24.686;2022-12-07T10:59:55;99394.13;;;11.78;99.67
7668;BME280;3876;42.204;24.686;2022-12-07T11:02:39;99388.00;;;11.82;99.41
7668;BME280;3876;42.204;24.686;2022-12-07T11:05:19;99390.38;;;11.86;97.09
7668;BME280;3876;42.204;24.686;2022-12-07T11:07:59;99374.34;;;11.80;96.88
7668;BME280;3876;42.204;24.686;2022-12-07T11:10:33;99390.22;;;11.91;92.63
7668;BME280;3876;42.204;24.686;2022-12-07T11:13:21;99382.44;;;11.92;93.17
7668;BME280;3876;42.204;24.686;2022-12-07T11:16:03;99373.94;;;11.92;91.59
7668;BME280;3876;42.204;24.686;2022-12-07T11:18:40;99380.72;;;11.93;93.81
7668;BME280;3876;42.204;24.686;2022-12-07T11:21:20;99357.28;;;11.79;95.52
7668;BME280;3876;42.204;24.686;2022-12-07T11:24:01;99337.88;;;11.70;96.00
7668;BME280;3876;42.204;24.686;2022-12-07T11:26:39;99362.97;;;12.10;95.33
7668;BME280;3876;42.204;24.686;2022-12-07T11:29:30;99356.75;;;12.16;94.61
7668;BME280;3876;42.204;24.686;2022-12-07T11:32:07;99361.06;;;12.15;93.01
7668;BME280;3876;42.204;24.686;2022-12-07T11:34:47;99359.16;;;12.20;93.11
7668;BME280;3876;42.204;24.686;2022-12-07T11:37:20;99210.16;;;11.29;92.93
7668;BME280;3876;42.204;24.686;2022-12-07T11:39:51;99341.53;;;12.11;93.30
7668;BME280;3876;42.204;24.686;2022-12-07T11:42:22;99349.34;;;12.08;93.87
7668;BME280;3876;42.204;24.686;2022-12-07T11:44:53;99351.00;;;12.09;92.75
7668;BME280;3876;42.204;24.686;2022-12-07T11:47:28;99348.44;;;12.09;93.53
7668;BME280;3876;42.204;24.686;2022-12-07T11:50:05;99341.34;;;12.16;93.08
7668;BME280;3876;42.204;24.686;2022-12-07T11:52:43;99344.63;;;12.19;94.31
7668;BME280;3876;42.204;24.686;2022-12-07T11:55:19;99341.34;;;12.16;93.47
7668;BME280;3876;42.204;24.686;2022-12-07T11:57:52;99314.72;;;11.95;92.71
7668;BME280;3876;42.204;24.686;2022-12-07T12:00:21;99328.84;;;12.06;93.73
7668;BME280;3876;42.204;24.686;2022-12-07T12:02:53;99320.28;;;12.06;93.84
7668;BME280;3876;42.204;24.686;2022-12-07T12:05:24;99320.97;;;12.11;94.60
7668;BME280;3876;42.204;24.686;2022-12-07T12:07:59;99309.78;;;12.12;95.33
7668;BME280;3876;42.204;24.686;2022-12-07T12:10:37;99319.81;;;12.18;93.86
7668;BME280;3876;42.204;24.686;2022-12-07T12:13:20;99317.38;;;12.15;93.31
7668;BME280;3876;42.204;24.686;2022-12-07T12:16:04;99327.31;;;12.24;92.82
7668;BME280;3876;42.204;24.686;2022-12-07T12:18:48;99316.72;;;12.10;91.74
7668;BME280;3876;42.204;24.686;2022-12-07T12:21:22;99315.94;;;12.08;91.85
7668;BME280;3876;42.204;24.686;2022-12-07T12:23:57;99315.16;;;12.06;93.00
7668;BME280;3876;42.204;24.686;2022-12-07T12:26:27;99310.63;;;12.13;93.08
7668;BME280;3876;42.204;24.686;2022-12-07T12:28:56;99308.53;;;12.22;92.71
7668;BME280;3876;42.204;24.686;2022-12-07T12:31:34;99302.63;;;12.20;91.99
7668;BME280;3876;42.204;24.686;2022-12-07T12:34:10;99300.72;;;12.25;91.96
7668;BME280;3876;42.204;24.686;2022-12-07T12:36:51;99294.13;;;12.18;93.52
7668;BME280;3876;42.204;24.686;2022-12-07T12:39:18;99257.31;;;11.96;92.91
7668;BME280;3876;42.204;24.686;2022-12-07T12:41:55;99285.75;;;12.13;93.56
7668;BME280;3876;42.204;24.686;2022-12-07T12:45:11;99287.44;;;12.14;93.84
7668;BME280;3876;42.204;24.686;2022-12-07T12:47:59;99270.88;;;11.99;93.87
7668;BME280;3876;42.204;24.686;2022-12-07T12:50:29;99286.13;;;12.04;94.18
7668;BME280;3876;42.204;24.686;2022-12-07T12:53:12;99284.31;;;12.06;94.66
7668;BME280;3876;42.204;24.686;2022-12-07T12:58:36;99286.13;;;12.04;94.09
7668;BME280;3876;42.204;24.686;2022-12-07T13:01:36;99293.72;;;12.07;94.44
7668;BME280;3876;42.204;24.686;2022-12-07T13:04:17;99265.94;;;11.95;95.22
7668;BME280;3876;42.204;24.686;2022-12-07T13:06:49;99278.47;;;12.02;95.26
7668;BME280;3876;42.204;24.686;2022-12-07T13:09:20;99278.94;;;12.12;95.56
7668;BME280;3876;42.204;24.686;2022-12-07T13:11:49;99272.88;;;12.15;95.14
7668;BME280;3876;42.204;24.686;2022-12-07T13:14:52;99263.00;;;12.04;94.41
7668;BME280;3876;42.204;24.686;2022-12-07T13:20:40;99284.94;;;12.13;94.50
7668;BME280;3876;42.204;24.686;2022-12-07T13:23:10;99280.50;;;12.16;93.60
7668;BME280;3876;42.204;24.686;2022-12-07T13:25:44;99281.22;;;12.20;93.75
7668;BME280;3876;42.204;24.686;2022-12-07T13:28:15;99283.50;;;12.27;94.42
7668;BME280;3876;42.204;24.686;2022-12-07T13:30:47;99291.03;;;12.32;94.75
7668;BME280;3876;42.204;24.686;2022-12-07T13:33:19;99285.97;;;12.30;94.79
7668;BME280;3876;42.204;24.686;2022-12-07T13:35:46;99286.84;;;12.29;93.79
7668;BME280;3876;42.204;24.686;2022-12-07T13:38:23;99280.38;;;12.19;93.70